Time;durP1;ratioP1;P1;durP2;ratioP2;P2;SDS_P1;SDS_P2;PMS_P1;PMS_P2;Temp;Humidity;BMP_temperature;BMP_pressure;BME280_temperature;BME280_humidity;BME280_pressure;Samples;Min_cycle;Max_cycle;Signal;HPM_P1;HPM_P2
2022/04/06 00:00:46;;;;;;;10.90;4.43;;;15.00;75.00;;;;;;3912749;30;20408;-71
2022/04/06 00:03:09;;;;;;;9.32;4.35;;;15.00;75.00;;;;;;3913364;30;20139;-71
2022/04/06 00:05:32;;;;;;;9.13;4.05;;;15.00;75.00;;;;;;3912737;30;20147;-71
2022/04/06 00:07:54;;;;;;;8.02;4.38;;;15.00;75.10;;;;;;3899093;30;20101;-71
2022/04/06 00:10:16;;;;;;;11.27;4.72;;;15.00;75.00;;;;;;3897876;30;20059;-70
2022/04/06 00:12:40;;;;;;;12.48;5.40;;;15.00;75.10;;;;;;3898849;30;20049;-70
2022/04/06 00:15:04;;;;;;;11.00;4.78;;;15.00;75.10;;;;;;3906742;30;20559;-70
2022/04/06 00:17:26;;;;;;;15.50;5.70;;;15.00;75.10;;;;;;3913244;30;20143;-70
2022/04/06 00:19:48;;;;;;;10.40;5.53;;;15.00;75.20;;;;;;3913189;30;20060;-70
2022/04/06 00:22:10;;;;;;;16.05;6.30;;;15.00;75.30;;;;;;3913382;30;20076;-70
2022/04/06 00:24:33;;;;;;;9.85;5.15;;;15.00;75.30;;;;;;3890450;30;20059;-70
2022/04/06 00:26:55;;;;;;;12.00;5.38;;;15.00;75.30;;;;;;3899765;30;20045;-69
2022/04/06 00:29:19;;;;;;;15.65;7.05;;;14.90;75.30;;;;;;3899839;30;20057;-70
2022/04/06 00:31:41;;;;;;;17.27;6.88;;;15.00;75.40;;;;;;3911408;30;20144;-70
2022/04/06 00:34:03;;;;;;;17.58;7.72;;;14.90;76.20;;;;;;3911774;30;20143;-70
2022/04/06 00:36:25;;;;;;;12.57;7.60;;;14.90;75.30;;;;;;3912435;30;20422;-70
2022/04/06 00:38:47;;;;;;;18.90;7.22;;;15.00;75.50;;;;;;3912345;30;20478;-70
2022/04/06 00:41:10;;;;;;;19.10;8.00;;;14.90;75.40;;;;;;3897259;30;20103;-70
2022/04/06 00:43:32;;;;;;;17.45;6.88;;;14.90;75.40;;;;;;3898340;30;20063;-70
2022/04/06 00:45:55;;;;;;;18.80;7.97;;;15.00;75.50;;;;;;3912414;30;20060;-70
2022/04/06 00:48:17;;;;;;;21.77;7.70;;;14.90;75.60;;;;;;3911381;30;20058;-70
2022/04/06 00:50:41;;;;;;;27.58;7.25;;;14.90;75.60;;;;;;3912213;30;20067;-70
2022/04/06 00:53:05;;;;;;;19.90;8.43;;;14.90;75.60;;;;;;3911210;30;20494;-68
2022/04/06 00:55:32;;;;;;;17.88;7.70;;;14.90;75.60;;;;;;3911588;30;20156;-69
2022/04/06 00:57:54;;;;;;;15.38;8.63;;;14.90;75.60;;;;;;3911267;30;20065;-70
2022/04/06 01:00:17;;;;;;;20.77;8.93;;;14.90;75.60;;;;;;3912756;30;20164;-70
2022/04/06 01:02:40;;;;;;;18.58;7.50;;;14.90;75.70;;;;;;3912322;30;20059;-70
2022/04/06 01:05:03;;;;;;;22.67;8.32;;;14.90;75.60;;;;;;3912045;30;20048;-70
2022/04/06 01:07:25;;;;;;;19.10;8.65;;;14.90;75.60;;;;;;3912194;30;20160;-70
2022/04/06 01:09:48;;;;;;;21.52;9.07;;;14.90;75.70;;;;;;3911680;30;20070;-70
2022/04/06 01:12:10;;;;;;;15.00;8.23;;;14.90;75.60;;;;;;3911823;30;20053;-70
2022/04/06 01:14:33;;;;;;;20.63;8.90;;;14.90;75.70;;;;;;3897220;30;20056;-70
2022/04/06 01:16:59;;;;;;;16.70;8.77;;;14.90;75.60;;;;;;3897650;30;20053;-70
2022/04/06 01:19:23;;;;;;;19.90;9.23;;;14.90;76.50;;;;;;3897572;30;20067;-70
2022/04/06 01:21:46;;;;;;;15.40;8.57;;;14.90;75.70;;;;;;3882751;30;20068;-70
2022/04/06 01:24:09;;;;;;;19.60;9.25;;;14.90;75.70;;;;;;3912279;30;20110;-70
2022/04/06 01:26:34;;;;;;;22.15;9.32;;;14.90;75.80;;;;;;3912079;30;20064;-69
2022/04/06 01:28:57;;;;;;;18.20;7.82;;;14.90;75.80;;;;;;3911630;30;20071;-70
2022/04/06 01:31:19;;;;;;;18.50;9.02;;;14.90;75.80;;;;;;3911565;30;20052;-70
2022/04/06 01:33:41;;;;;;;23.85;9.90;;;14.90;75.90;;;;;;3920886;30;20459;-70
2022/04/06 01:36:05;;;;;;;20.13;9.48;;;14.90;75.80;;;;;;3913445;30;20478;-70
2022/04/06 01:38:27;;;;;;;21.95;10.15;;;14.90;75.80;;;;;;3925932;30;20056;-70
2022/04/06 01:40:51;;;;;;;24.83;9.40;;;14.90;75.70;;;;;;3926300;30;20135;-70
2022/04/06 01:43:13;;;;;;;22.05;7.80;;;14.90;75.70;;;;;;3926620;30;20052;-70
2022/04/06 01:45:35;;;;;;;21.95;9.18;;;14.90;76.60;;;;;;3924881;30;20532;-70
2022/04/06 01:47:58;;;;;;;17.95;7.85;;;14.80;75.70;;;;;;3925913;30;20812;-64
2022/04/06 01:52:59;;;;;;;16.80;9.18;;;14.90;75.90;;;;;;3926695;30;20062;-65
2022/04/06 01:55:21;;;;;;;18.15;8.40;;;14.80;75.90;;;;;;3926765;30;20063;-64
2022/04/06 01:57:45;;;;;;;26.48;8.93;;;14.80;75.90;;;;;;3926875;30;20048;-65
2022/04/06 02:00:10;;;;;;;22.63;8.43;;;14.80;75.90;;;;;;3927901;30;20056;-65
2022/04/06 02:02:36;;;;;;;22.65;8.45;;;14.80;75.90;;;;;;3915716;30;20052;-64
2022/04/06 02:04:59;;;;;;;22.15;9.45;;;14.80;75.90;;;;;;3929438;30;20056;-67
2022/04/06 02:07:23;;;;;;;20.77;8.30;;;14.80;75.90;;;;;;3929311;30;20049;-66
2022/04/06 02:09:46;;;;;;;19.75;9.32;;;14.80;75.90;;;;;;3929281;30;20125;-66
2022/04/06 02:12:10;;;;;;;18.25;8.38;;;14.80;75.90;;;;;;3929299;30;20060;-66
2022/04/06 02:14:34;;;;;;;20.73;7.53;;;14.80;76.00;;;;;;3928328;30;20068;-66
2022/04/06 02:16:56;;;;;;;17.48;7.93;;;14.80;76.00;;;;;;3929035;30;20117;-66
2022/04/06 02:19:18;;;;;;;20.83;7.53;;;14.80;75.90;;;;;;3915612;30;20064;-65
2022/04/06 02:21:41;;;;;;;16.27;7.53;;;14.80;75.70;;;;;;3915562;30;20148;-65
2022/04/06 02:24:04;;;;;;;15.65;6.70;;;14.80;75.80;;;;;;3927631;30;20052;-65
2022/04/06 02:26:27;;;;;;;20.15;6.93;;;14.80;75.80;;;;;;3928234;30;20082;-65
2022/04/06 02:28:49;;;;;;;15.70;7.07;;;14.80;75.90;;;;;;3926652;30;20060;-64
2022/04/06 02:31:12;;;;;;;13.20;6.07;;;14.80;75.90;;;;;;3929049;30;20048;-64
2022/04/06 02:33:35;;;;;;;18.38;6.97;;;14.80;76.90;;;;;;3926107;30;20064;-65
2022/04/06 02:35:57;;;;;;;16.88;6.22;;;14.80;76.10;;;;;;3914046;30;20148;-65
2022/04/06 02:38:20;;;;;;;12.80;5.70;;;14.80;76.00;;;;;;3914279;30;20155;-65
2022/04/06 02:40:42;;;;;;;11.07;5.40;;;14.70;76.00;;;;;;3912593;30;20144;-65
2022/04/06 02:43:04;;;;;;;15.35;5.95;;;14.80;76.10;;;;;;3914280;30;20060;-65
2022/04/06 02:45:27;;;;;;;12.85;5.18;;;14.70;76.00;;;;;;3914361;30;20148;-65
2022/04/06 02:47:50;;;;;;;12.05;5.80;;;14.70;76.00;;;;;;3913972;30;20164;-65
2022/04/06 02:50:12;;;;;;;12.52;4.60;;;14.70;76.00;;;;;;3912655;30;20504;-65
2022/04/06 02:52:35;;;;;;;13.80;5.15;;;14.70;76.00;;;;;;3913067;30;20056;-66
2022/04/06 02:54:57;;;;;;;13.65;4.78;;;14.70;76.20;;;;;;3913525;30;20481;-65
2022/04/06 02:57:19;;;;;;;13.10;4.65;;;14.70;76.10;;;;;;3914250;30;20091;-65
2022/04/06 02:59:41;;;;;;;13.32;5.03;;;14.70;76.10;;;;;;3913569;30;20053;-65
2022/04/06 03:02:04;;;;;;;9.18;4.53;;;14.70;76.20;;;;;;3914599;30;20061;-65
2022/04/06 03:04:27;;;;;;;12.38;4.90;;;14.70;76.10;;;;;;3900730;30;20069;-65
2022/04/06 03:06:50;;;;;;;13.60;4.53;;;14.70;77.00;;;;;;3914054;30;20053;-65
2022/04/06 03:09:12;;;;;;;12.80;4.22;;;14.70;76.10;;;;;;3913113;30;20497;-64
2022/04/06 03:11:34;;;;;;;10.95;4.15;;;14.70;76.20;;;;;;3913565;30;20060;-64
2022/04/06 03:13:56;;;;;;;9.60;3.60;;;14.70;76.20;;;;;;3913508;30;20122;-64
2022/04/06 03:16:19;;;;;;;5.97;3.38;;;14.70;76.20;;;;;;3913459;30;20060;-64
2022/04/06 03:18:41;;;;;;;7.72;3.42;;;14.70;76.20;;;;;;3913281;30;20556;-64
2022/04/06 03:21:05;;;;;;;7.57;3.83;;;14.70;76.20;;;;;;3899691;30;20084;-64
2022/04/06 03:23:27;;;;;;;11.77;3.72;;;14.70;76.20;;;;;;3899823;30;20049;-63
2022/04/06 03:25:49;;;;;;;9.00;3.75;;;14.70;76.20;;;;;;3899437;30;20079;-64
2022/04/06 03:28:12;;;;;;;5.38;2.90;;;14.70;76.30;;;;;;3900625;30;20060;-64
2022/04/06 03:30:34;;;;;;;5.85;3.15;;;14.70;76.20;;;;;;3913586;30;20095;-64
2022/04/06 03:32:56;;;;;;;11.38;3.63;;;14.70;76.30;;;;;;3913807;30;20417;-66
2022/04/06 03:35:18;;;;;;;9.57;3.88;;;14.70;76.40;;;;;;3899406;30;20113;-65
2022/04/06 03:37:42;;;;;;;10.23;3.50;;;14.60;76.20;;;;;;3901501;30;20088;-64
2022/04/06 03:40:06;;;;;;;9.05;2.72;;;14.70;76.30;;;;;;3898194;30;20061;-67
2022/04/06 03:42:28;;;;;;;5.60;2.63;;;14.70;76.30;;;;;;3899503;30;20148;-68
2022/04/06 03:44:50;;;;;;;6.15;2.30;;;14.60;76.20;;;;;;3899057;30;20144;-65
2022/04/06 03:47:12;;;;;;;7.88;2.53;;;14.60;76.10;;;;;;3900903;30;20409;-67
2022/04/06 03:49:34;;;;;;;6.25;2.78;;;14.60;76.10;;;;;;3912884;30;20175;-66
2022/04/06 03:51:57;;;;;;;10.90;2.78;;;14.60;76.10;;;;;;3913328;30;20460;-67
2022/04/06 03:54:20;;;;;;;4.20;2.67;;;14.60;76.20;;;;;;3913812;30;20583;-66
2022/04/06 03:56:42;;;;;;;10.50;2.78;;;14.60;76.20;;;;;;3912692;30;20523;-66
2022/04/06 03:59:06;;;;;;;9.45;3.60;;;14.60;76.20;;;;;;3912760;30;20056;-65
2022/04/06 04:01:30;;;;;;;12.95;3.53;;;14.60;76.10;;;;;;3913487;30;20095;-66
2022/04/06 04:03:53;;;;;;;9.73;3.25;;;14.60;76.20;;;;;;3913541;30;20091;-67
2022/04/06 04:06:15;;;;;;;9.07;3.28;;;14.60;76.10;;;;;;3913019;30;20131;-66
2022/04/06 04:08:37;;;;;;;11.55;3.90;;;14.60;76.20;;;;;;3912667;30;20049;-67
2022/04/06 04:11:01;;;;;;;9.35;3.95;;;14.60;76.10;;;;;;3912678;30;20516;-67
2022/04/06 04:13:23;;;;;;;11.00;3.75;;;14.60;76.10;;;;;;3899033;30;20114;-68
2022/04/06 04:15:46;;;;;;;9.02;3.65;;;14.60;76.30;;;;;;3897686;30;20064;-67
2022/04/06 04:18:08;;;;;;;10.88;3.90;;;14.60;76.30;;;;;;3907654;30;20106;-66
2022/04/06 04:20:30;;;;;;;7.70;3.20;;;14.60;76.30;;;;;;3913381;30;20068;-67
2022/04/06 04:22:52;;;;;;;10.60;3.60;;;14.60;76.40;;;;;;3912821;30;20064;-67
2022/04/06 04:25:15;;;;;;;9.40;3.92;;;14.60;76.50;;;;;;3913066;30;20056;-67
2022/04/06 04:27:39;;;;;;;15.88;4.40;;;14.60;76.40;;;;;;3913346;30;20052;-67
2022/04/06 04:30:01;;;;;;;13.35;4.70;;;14.60;76.40;;;;;;3912792;30;20169;-67
2022/04/06 04:32:29;;;;;;;11.40;4.93;;;14.60;76.40;;;;;;3912994;30;20060;-67
2022/04/06 04:34:51;;;;;;;12.48;5.22;;;14.50;76.30;;;;;;3924436;30;20063;-67
2022/04/06 04:37:13;;;;;;;16.52;4.78;;;14.60;76.40;;;;;;3926919;30;20159;-66
2022/04/06 04:39:35;;;;;;;12.73;5.20;;;14.60;77.30;;;;;;3927183;30;20083;-67
2022/04/06 04:41:57;;;;;;;19.17;5.57;;;14.50;76.50;;;;;;3927431;30;20063;-68
2022/04/06 04:44:20;;;;;;;14.82;5.80;;;14.50;76.50;;;;;;3927419;30;20052;-66
2022/04/06 04:46:43;;;;;;;17.40;7.28;;;14.50;76.60;;;;;;3927008;30;20052;-66
2022/04/06 04:49:05;;;;;;;11.20;5.28;;;14.60;76.70;;;;;;3926819;30;20071;-66
2022/04/06 04:51:28;;;;;;;20.15;6.93;;;14.50;76.60;;;;;;3927166;30;20056;-66
2022/04/06 04:53:50;;;;;;;13.90;5.78;;;14.50;76.60;;;;;;3927058;30;20440;-65
2022/04/06 04:56:12;;;;;;;16.95;6.25;;;14.60;76.70;;;;;;3926999;30;20063;-66
2022/04/06 04:58:35;;;;;;;16.90;5.88;;;14.50;76.60;;;;;;3926770;30;20056;-67
2022/04/06 05:00:59;;;;;;;15.85;5.38;;;14.50;76.60;;;;;;3927042;30;20059;-66
2022/04/06 05:03:21;;;;;;;14.98;6.28;;;14.50;76.80;;;;;;3927169;30;20428;-66
2022/04/06 05:05:44;;;;;;;16.48;5.38;;;14.50;76.80;;;;;;3926560;30;20048;-66
2022/04/06 05:08:07;;;;;;;17.08;6.30;;;14.50;76.60;;;;;;3926397;30;20114;-66
2022/04/06 05:10:29;;;;;;;12.65;5.25;;;14.50;76.50;;;;;;3926918;30;20450;-66
2022/04/06 05:12:52;;;;;;;13.63;5.50;;;14.50;76.50;;;;;;3926742;30;20447;-67
2022/04/06 05:15:15;;;;;;;17.70;6.05;;;14.50;76.60;;;;;;3913796;30;20079;-66
2022/04/06 05:17:39;;;;;;;9.63;4.75;;;14.50;77.60;;;;;;3926584;30;20056;-66
2022/04/06 05:20:01;;;;;;;12.38;5.13;;;14.50;76.70;;;;;;3922161;30;20079;-66
2022/04/06 05:22:24;;;;;;;12.50;5.38;;;14.50;76.70;;;;;;3926847;30;20497;-66
2022/04/06 05:24:46;;;;;;;13.70;4.53;;;14.50;76.60;;;;;;3926440;30;20052;-66
2022/04/06 05:27:09;;;;;;;14.32;5.18;;;14.50;76.60;;;;;;3925212;30;20048;-66
2022/04/06 05:29:31;;;;;;;13.98;4.20;;;14.50;76.80;;;;;;3925698;30;20125;-66
2022/04/06 05:31:53;;;;;;;13.68;5.78;;;14.50;76.70;;;;;;3926790;30;20063;-66
2022/04/06 05:34:17;;;;;;;11.48;4.65;;;14.50;76.70;;;;;;3911911;30;20147;-65
2022/04/06 05:36:39;;;;;;;15.02;5.70;;;14.50;76.70;;;;;;3926701;30;20060;-67
2022/04/06 05:39:02;;;;;;;13.05;4.55;;;14.50;76.80;;;;;;3926471;30;20986;-65
2022/04/06 05:41:24;;;;;;;12.82;4.50;;;14.40;76.70;;;;;;3913650;30;20490;-68
2022/04/06 05:43:47;;;;;;;13.48;4.82;;;14.50;77.30;;;;;;3926134;30;20059;-67
2022/04/06 05:46:09;;;;;;;13.43;5.03;;;14.50;78.00;;;;;;3926221;30;20067;-67
2022/04/06 05:48:31;;;;;;;9.52;4.30;;;14.50;77.70;;;;;;3926722;30;20139;-67
2022/04/06 05:50:55;;;;;;;12.30;4.90;;;14.60;77.20;;;;;;3926904;30;20052;-68
2022/04/06 05:53:17;;;;;;;12.55;4.40;;;14.50;77.10;;;;;;3933492;30;20051;-66
2022/04/06 05:55:40;;;;;;;12.93;5.35;;;14.50;77.10;;;;;;3937427;30;20060;-67
2022/04/06 05:58:02;;;;;;;7.75;3.55;;;14.50;77.00;;;;;;3939866;29;20051;-68
2022/04/06 06:00:24;;;;;;;14.93;3.90;;;14.50;76.90;;;;;;3937920;30;20059;-68
2022/04/06 06:02:47;;;;;;;10.35;3.72;;;14.50;76.90;;;;;;3931711;30;20056;-67
2022/04/06 06:05:10;;;;;;;12.65;4.72;;;14.50;76.90;;;;;;3926269;30;20056;-68
2022/04/06 06:07:33;;;;;;;12.23;4.28;;;14.50;76.90;;;;;;3916164;30;20071;-68
2022/04/06 06:09:56;;;;;;;12.98;4.05;;;14.50;77.00;;;;;;3935677;30;20083;-67
2022/04/06 06:12:19;;;;;;;14.85;4.10;;;14.50;76.90;;;;;;3926286;30;20520;-68
2022/04/06 06:14:41;;;;;;;9.95;3.70;;;14.50;76.90;;;;;;3925644;30;20052;-68
2022/04/06 06:17:03;;;;;;;14.15;4.53;;;14.50;77.00;;;;;;3925783;30;20052;-68
2022/04/06 06:19:25;;;;;;;10.98;3.95;;;14.50;76.90;;;;;;3925251;30;20137;-67
2022/04/06 06:21:48;;;;;;;13.85;4.45;;;14.50;76.90;;;;;;3926075;30;20076;-68
2022/04/06 06:24:12;;;;;;;8.35;3.42;;;14.40;76.80;;;;;;3925832;30;20059;-67
2022/04/06 06:26:35;;;;;;;6.13;3.80;;;14.50;76.90;;;;;;3940910;30;20550;-67
2022/04/06 06:28:57;;;;;;;11.85;3.90;;;14.40;77.40;;;;;;3927437;30;20064;-68
2022/04/06 06:31:19;;;;;;;8.65;2.75;;;14.50;76.90;;;;;;3934435;30;20058;-65
2022/04/06 06:33:41;;;;;;;14.48;4.22;;;14.40;76.90;;;;;;3924946;30;20413;-69
2022/04/06 06:36:05;;;;;;;8.13;3.00;;;14.40;77.00;;;;;;3923071;30;20066;-68
2022/04/06 06:38:27;;;;;;;6.35;2.95;;;14.40;77.10;;;;;;3925300;30;20401;-67
2022/04/06 06:40:51;;;;;;;9.48;3.55;;;14.40;77.10;;;;;;3923515;30;20076;-67
2022/04/06 06:43:13;;;;;;;8.10;3.50;;;14.40;78.00;;;;;;3922701;30;20063;-68
2022/04/06 06:45:35;;;;;;;9.52;3.58;;;14.40;77.10;;;;;;3926332;30;20493;-67
2022/04/06 06:47:57;;;;;;;6.55;2.60;;;14.40;77.10;;;;;;3925458;30;20060;-66
2022/04/06 06:50:20;;;;;;;8.38;3.53;;;14.40;77.20;;;;;;3922155;30;20121;-68
2022/04/06 06:52:42;;;;;;;11.48;3.08;;;14.40;77.10;;;;;;3927684;30;20409;-67
2022/04/06 06:55:09;;;;;;;5.80;2.35;;;14.40;77.10;;;;;;3927211;30;20044;-67
2022/04/06 06:57:34;;;;;;;6.45;2.50;;;14.40;77.30;;;;;;3927363;30;20505;-66
2022/04/06 06:59:56;;;;;;;5.95;2.05;;;14.40;77.40;;;;;;3928390;30;20083;-67
2022/04/06 07:02:18;;;;;;;5.30;2.45;;;14.40;77.40;;;;;;3928714;30;20060;-65
2022/04/06 07:04:40;;;;;;;16.15;3.53;;;14.40;77.50;;;;;;3927780;30;20483;-68
2022/04/06 07:07:03;;;;;;;3.40;2.03;;;14.40;77.50;;;;;;3926370;30;20493;-70
2022/04/06 07:09:25;;;;;;;7.80;3.75;;;14.40;77.60;;;;;;3927494;30;20060;-70
2022/04/06 07:11:47;;;;;;;8.85;2.17;;;14.30;77.50;;;;;;3927291;30;20048;-69
2022/04/06 07:14:11;;;;;;;5.35;1.98;;;14.40;77.70;;;;;;3924732;30;20424;-68
2022/04/06 07:16:34;;;;;;;4.47;1.95;;;14.30;77.60;;;;;;3927663;30;20106;-69
2022/04/06 07:18:56;;;;;;;5.32;1.85;;;14.30;77.70;;;;;;3924967;30;20075;-66
2022/04/06 07:21:18;;;;;;;8.57;2.47;;;14.40;77.80;;;;;;3925322;30;20063;-66
2022/04/06 07:23:41;;;;;;;3.38;1.52;;;14.30;77.60;;;;;;3925448;30;20056;-65
2022/04/06 07:26:03;;;;;;;3.53;1.58;;;14.40;77.80;;;;;;3925246;30;20062;-65
2022/04/06 07:28:25;;;;;;;5.70;1.60;;;14.30;77.90;;;;;;3924873;30;20067;-66
2022/04/06 07:30:49;;;;;;;7.72;2.67;;;14.40;78.00;;;;;;3924623;30;20067;-65
2022/04/06 07:33:13;;;;;;;5.32;2.03;;;14.30;77.90;;;;;;3924876;30;20056;-66
2022/04/06 07:35:35;;;;;;;6.63;1.80;;;14.30;77.90;;;;;;3924387;30;20079;-64
2022/04/06 07:37:58;;;;;;;7.88;1.80;;;14.40;77.80;;;;;;3910838;30;20096;-66
2022/04/06 07:40:22;;;;;;;6.70;2.28;;;14.30;77.90;;;;;;3910282;30;20403;-65
2022/04/06 07:42:46;;;;;;;7.15;2.35;;;14.30;78.10;;;;;;3924348;30;20059;-65
2022/04/06 07:45:10;;;;;;;4.00;1.70;;;14.30;78.10;;;;;;3923992;30;20048;-66
2022/04/06 07:47:35;;;;;;;3.95;2.08;;;14.30;78.20;;;;;;3924204;30;20064;-65
2022/04/06 07:49:58;;;;;;;5.85;1.88;;;14.30;78.20;;;;;;3924675;30;20059;-66
2022/04/06 07:52:22;;;;;;;6.82;2.65;;;14.30;78.20;;;;;;3924201;30;20183;-66
2022/04/06 07:54:44;;;;;;;9.05;1.95;;;14.30;78.10;;;;;;3924433;30;20576;-66
2022/04/06 07:57:06;;;;;;;6.75;2.15;;;14.30;78.30;;;;;;3923784;30;20067;-66
2022/04/06 07:59:28;;;;;;;4.70;1.88;;;14.30;78.30;;;;;;3911085;30;20122;-68
2022/04/06 08:01:50;;;;;;;5.03;2.03;;;14.30;78.30;;;;;;3925067;30;20063;-68
2022/04/06 08:04:14;;;;;;;7.53;1.83;;;14.30;78.30;;;;;;3923471;30;20079;-68
2022/04/06 08:06:36;;;;;;;5.38;2.00;;;14.30;78.20;;;;;;3923722;30;20075;-68
2022/04/06 08:08:59;;;;;;;6.70;1.98;;;14.30;78.10;;;;;;3924341;30;20151;-68
2022/04/06 08:11:21;;;;;;;4.10;2.13;;;14.30;78.20;;;;;;3923905;30;20063;-68
2022/04/06 08:13:44;;;;;;;4.32;1.45;;;14.30;78.20;;;;;;3923624;30;20146;-68
2022/04/06 08:16:06;;;;;;;7.63;2.13;;;14.30;78.30;;;;;;3924631;30;20052;-68
2022/04/06 08:18:29;;;;;;;9.23;2.28;;;14.30;78.30;;;;;;3924270;30;20056;-68
2022/04/06 08:20:53;;;;;;;3.47;2.08;;;14.30;78.30;;;;;;3923350;30;20059;-68
2022/04/06 08:23:17;;;;;;;8.63;2.28;;;14.30;78.40;;;;;;3923845;30;20052;-68
2022/04/06 08:25:39;;;;;;;6.47;2.20;;;14.30;78.30;;;;;;3924610;30;20056;-68
2022/04/06 08:28:02;;;;;;;7.35;2.75;;;14.30;78.30;;;;;;3923890;30;20064;-68
2022/04/06 08:30:24;;;;;;;9.20;2.70;;;14.30;78.30;;;;;;3924121;30;20067;-68
2022/04/06 08:32:47;;;;;;;6.28;2.30;;;14.30;78.40;;;;;;3924288;30;20064;-67
2022/04/06 08:35:10;;;;;;;3.70;2.03;;;14.30;78.50;;;;;;3887011;30;1125529;-67
2022/04/06 08:37:33;;;;;;;5.25;1.70;;;14.30;78.50;;;;;;3924703;30;20417;-68
2022/04/06 08:39:56;;;;;;;9.55;2.08;;;14.30;78.50;;;;;;3925074;30;20059;-68
2022/04/06 08:42:32;;;;;;;6.22;2.15;;;14.30;78.40;;;;;;3924835;30;20056;-68
2022/04/06 08:44:57;;;;;;;4.50;1.88;;;14.30;78.40;;;;;;3924362;30;20060;-66
2022/04/06 08:47:20;;;;;;;5.03;1.95;;;14.30;78.40;;;;;;3922505;30;20056;-69
2022/04/06 08:49:43;;;;;;;3.20;1.73;;;14.30;78.30;;;;;;3923740;30;20140;-69
2022/04/06 08:52:06;;;;;;;5.63;1.90;;;14.30;78.30;;;;;;3923445;30;20060;-68
2022/04/06 08:54:30;;;;;;;7.38;2.20;;;14.30;78.20;;;;;;3924050;30;20056;-68
2022/04/06 08:56:52;;;;;;;6.30;1.70;;;14.30;78.30;;;;;;3924151;30;20135;-68
2022/04/06 08:59:15;;;;;;;5.40;2.03;;;14.30;78.40;;;;;;3924406;30;20463;-69
2022/04/06 09:01:37;;;;;;;6.25;1.75;;;14.30;78.40;;;;;;3923920;30;20526;-68
2022/04/06 09:04:00;;;;;;;10.00;2.10;;;14.30;78.40;;;;;;3923412;30;20052;-68
2022/04/06 09:06:44;;;;;;;8.73;2.00;;;14.30;78.50;;;;;;3923844;30;20056;-68
2022/04/06 09:09:06;;;;;;;7.78;1.17;;;14.20;78.50;;;;;;3924579;30;20052;-68
2022/04/06 09:11:30;;;;;;;9.38;2.00;;;14.20;78.40;;;;;;3923284;30;20056;-68
2022/04/06 09:13:59;;;;;;;6.82;1.98;;;14.20;78.40;;;;;;3924778;30;20060;-68
2022/04/06 09:16:21;;;;;;;9.70;2.25;;;14.30;78.40;;;;;;3923190;30;20056;-68
2022/04/06 09:18:45;;;;;;;12.88;2.10;;;14.30;78.30;;;;;;3910913;30;20189;-68
2022/04/06 09:21:07;;;;;;;4.80;1.40;;;14.30;78.40;;;;;;3923987;30;20139;-69
2022/04/06 09:23:31;;;;;;;8.40;2.45;;;14.30;78.40;;;;;;3923934;30;20495;-69
2022/04/06 09:25:54;;;;;;;5.75;1.45;;;14.20;78.30;;;;;;3910204;30;20134;-68
2022/04/06 09:28:17;;;;;;;8.25;2.20;;;14.20;78.40;;;;;;3924040;30;20421;-68
2022/04/06 09:30:41;;;;;;;5.18;1.95;;;14.20;78.30;;;;;;3910757;30;20053;-69
2022/04/06 09:33:04;;;;;;;6.10;2.40;;;14.20;78.30;;;;;;3923607;30;20056;-68
2022/04/06 09:35:29;;;;;;;3.63;1.60;;;14.20;78.30;;;;;;3909293;30;20088;-68
2022/04/06 09:37:51;;;;;;;7.95;1.85;;;14.30;78.40;;;;;;3908945;30;20056;-69
2022/04/06 09:40:14;;;;;;;3.78;2.10;;;14.30;78.40;;;;;;3908495;30;20064;-68
2022/04/06 09:42:36;;;;;;;5.82;2.10;;;14.30;78.40;;;;;;3908923;30;20673;-69
2022/04/06 09:47:39;;;;;;;5.53;1.80;;;14.30;78.10;;;;;;3909068;30;20060;-69
2022/04/06 09:50:20;;;;;;;9.15;2.95;;;14.30;78.00;;;;;;3909329;30;20126;-69
2022/04/06 09:52:44;;;;;;;8.93;2.75;;;14.30;78.10;;;;;;3909479;30;20060;-69
2022/04/06 09:55:09;;;;;;;10.48;2.25;;;14.30;78.00;;;;;;3909364;30;20414;-69
2022/04/06 09:57:31;;;;;;;10.27;2.33;;;14.30;78.00;;;;;;3909386;30;20122;-70
2022/04/06 09:59:54;;;;;;;6.05;2.20;;;14.30;78.10;;;;;;3909706;30;20056;-69
2022/04/06 10:02:17;;;;;;;8.60;2.58;;;14.30;78.90;;;;;;3909760;30;20056;-70
2022/04/06 10:04:43;;;;;;;9.52;2.30;;;14.30;78.10;;;;;;3908516;30;20517;-69
2022/04/06 10:07:06;;;;;;;8.18;2.40;;;14.30;78.20;;;;;;3909367;30;20064;-68
2022/04/06 10:09:30;;;;;;;8.85;2.60;;;14.30;78.20;;;;;;3908833;30;20060;-70
2022/04/06 10:11:53;;;;;;;9.30;2.33;;;14.30;78.20;;;;;;3909417;30;20064;-68
2022/04/06 10:14:15;;;;;;;7.18;2.75;;;14.30;78.20;;;;;;3909203;30;20114;-68
2022/04/06 10:16:38;;;;;;;12.68;3.10;;;14.30;78.10;;;;;;3909965;30;20060;-70
2022/04/06 10:19:02;;;;;;;8.95;2.50;;;14.30;78.10;;;;;;3909590;30;20078;-69
2022/04/06 10:21:31;;;;;;;10.30;3.10;;;14.30;78.20;;;;;;3911694;30;20556;-69
2022/04/06 10:24:07;;;;;;;8.20;1.98;;;14.30;78.20;;;;;;3912217;30;20060;-69
2022/04/06 10:26:37;;;;;;;11.75;3.08;;;14.30;78.20;;;;;;3898665;30;20189;-68
2022/04/06 10:28:59;;;;;;;9.60;2.45;;;14.30;78.20;;;;;;3911199;30;20371;-68
2022/04/06 10:31:23;;;;;;;7.95;2.28;;;14.30;78.20;;;;;;3911996;30;20416;-68
2022/04/06 10:33:46;;;;;;;8.05;2.65;;;14.30;78.30;;;;;;3915893;30;20489;-69
2022/04/06 10:36:26;;;;;;;8.60;2.70;;;14.30;78.20;;;;;;3926217;30;20099;-69
2022/04/06 10:39:18;;;;;;;11.02;2.83;;;14.30;78.30;;;;;;3926400;30;20071;-69
2022/04/06 10:42:03;;;;;;;8.35;2.80;;;14.20;78.30;;;;;;3926759;30;20056;-68
2022/04/06 10:44:38;;;;;;;10.25;3.03;;;14.20;78.20;;;;;;3925843;30;20106;-68
2022/04/06 10:47:08;;;;;;;11.52;2.28;;;14.30;78.30;;;;;;3926066;30;20055;-68
2022/04/06 10:49:30;;;;;;;4.57;2.35;;;14.30;78.40;;;;;;3925898;30;20055;-68
2022/04/06 10:51:56;;;;;;;7.00;2.30;;;14.20;78.30;;;;;;3925561;30;20075;-69
2022/04/06 10:54:41;;;;;;;12.43;2.67;;;14.20;78.30;;;;;;3926328;30;20056;-69
2022/04/06 10:57:03;;;;;;;10.35;2.83;;;14.20;78.40;;;;;;3926226;30;20060;-69
2022/04/06 10:59:27;;;;;;;9.18;2.58;;;14.20;78.40;;;;;;3925999;30;20593;-69
2022/04/06 11:02:28;;;;;;;7.30;3.00;;;14.20;78.40;;;;;;3925904;30;20397;-68
2022/04/06 11:04:52;;;;;;;13.93;3.03;;;14.20;78.60;;;;;;3925455;30;20515;-68
2022/04/06 11:10:06;;;;;;;9.32;3.40;;;14.20;78.70;;;;;;3926157;30;20055;-67
2022/04/06 11:10:12;;;;;;;9.00;2.90;;;14.20;78.90;;;;;;3912795;30;20059;-67
2022/04/06 11:12:35;;;;;;;9.98;3.72;;;14.20;79.10;;;;;;3925781;30;20048;-68
2022/04/06 11:15:20;;;;;;;8.82;2.70;;;14.20;79.20;;;;;;3925433;30;20159;-68
2022/04/06 11:17:42;;;;;;;7.57;2.70;;;14.20;79.30;;;;;;3925920;30;20126;-68
2022/04/06 11:20:07;;;;;;;11.45;3.63;;;14.20;79.40;;;;;;3926130;30;20489;-69
2022/04/06 11:22:31;;;;;;;16.80;3.28;;;14.20;79.50;;;;;;3925028;30;20142;-70
2022/04/06 11:24:54;;;;;;;11.40;2.40;;;14.20;79.60;;;;;;3925732;30;20192;-68
2022/04/06 11:27:27;;;;;;;18.73;3.53;;;14.30;79.70;;;;;;3912803;30;20114;-70
2022/04/06 11:29:49;;;;;;;11.90;3.00;;;14.30;79.80;;;;;;3925309;30;20052;-68
2022/04/06 11:32:11;;;;;;;10.70;2.78;;;14.20;79.70;;;;;;3925104;30;20159;-68
2022/04/06 11:34:35;;;;;;;14.50;3.05;;;14.20;79.70;;;;;;3925183;30;20052;-68
2022/04/06 11:36:58;;;;;;;11.10;3.03;;;14.20;79.70;;;;;;3912299;30;20113;-69
2022/04/06 11:39:21;;;;;;;14.40;3.58;;;14.20;79.70;;;;;;3925507;30;20133;-69
2022/04/06 11:41:44;;;;;;;10.35;2.75;;;14.20;79.70;;;;;;3926049;30;20088;-69
2022/04/06 11:44:06;;;;;;;15.50;3.42;;;14.20;79.70;;;;;;3925683;30;20579;-69
2022/04/06 11:46:28;;;;;;;11.63;3.08;;;14.20;79.70;;;;;;3925410;30;20052;-69
2022/04/06 11:48:51;;;;;;;13.30;3.42;;;14.20;79.70;;;;;;3924913;30;20051;-68
2022/04/06 11:51:13;;;;;;;13.20;4.40;;;14.30;80.00;;;;;;3925516;30;20048;-69
2022/04/06 11:53:36;;;;;;;12.40;3.70;;;14.30;80.00;;;;;;3925209;30;20052;-69
2022/04/06 11:56:01;;;;;;;10.68;2.88;;;14.30;80.20;;;;;;3925840;30;20056;-69
2022/04/06 11:58:31;;;;;;;11.88;4.32;;;14.30;80.10;;;;;;3925559;30;20067;-68
2022/04/06 12:00:59;;;;;;;13.10;3.72;;;14.40;80.30;;;;;;3911690;30;20057;-69
2022/04/06 12:03:28;;;;;;;10.77;3.58;;;14.30;80.20;;;;;;3924375;30;20507;-68
2022/04/06 12:05:51;;;;;;;15.20;3.75;;;14.40;80.10;;;;;;3924856;30;20076;-68
2022/04/06 12:08:15;;;;;;;11.45;2.83;;;14.40;80.10;;;;;;3925604;30;20056;-68
2022/04/06 12:10:47;;;;;;;11.55;3.60;;;14.40;80.20;;;;;;3925328;30;20048;-67
2022/04/06 12:13:11;;;;;;;15.13;4.28;;;14.40;80.20;;;;;;3924658;30;20139;-69
2022/04/06 12:15:33;;;;;;;12.43;3.58;;;14.40;80.10;;;;;;3924980;30;20425;-68
2022/04/06 12:17:56;;;;;;;11.73;2.80;;;14.50;80.00;;;;;;3925074;30;20129;-70
2022/04/06 12:20:26;;;;;;;7.88;2.63;;;14.50;79.90;;;;;;3925244;30;20468;-69
2022/04/06 12:23:00;;;;;;;11.55;3.63;;;14.50;79.70;;;;;;3924701;30;20168;-68
2022/04/06 12:25:33;;;;;;;8.98;3.08;;;14.50;79.60;;;;;;3924987;30;20063;-70
2022/04/06 12:28:11;;;;;;;9.70;3.22;;;14.50;79.50;;;;;;3924730;30;20393;-70